createdAt,value
2018-09-21T05:31:58.453Z,15.30
2018-09-21T05:34:26.675Z,15.20
2018-09-21T05:36:54.801Z,15.00
2018-09-21T05:39:22.971Z,14.90
2018-09-21T05:41:51.113Z,14.80
2018-09-21T05:44:19.294Z,15.10
2018-09-21T05:46:47.460Z,15.10
2018-09-21T05:49:15.613Z,15.00
2018-09-21T05:51:43.811Z,15.00
2018-09-21T05:54:11.971Z,15.10
2018-09-21T05:56:40.898Z,15.10
2018-09-21T05:59:09.059Z,15.10
2018-09-21T06:01:37.237Z,15.30
2018-09-21T06:04:05.427Z,15.40
2018-09-21T06:06:33.641Z,15.50
2018-09-21T06:09:01.106Z,15.90
2018-09-21T06:11:29.276Z,15.90
2018-09-21T06:13:57.551Z,16.00
2018-09-21T06:16:25.642Z,16.30
2018-09-21T06:18:53.807Z,16.60
2018-09-21T06:21:21.993Z,16.80
2018-09-21T06:23:50.192Z,17.10
2018-09-21T06:26:18.378Z,17.20
2018-09-21T06:28:46.563Z,17.40
2018-09-21T06:31:14.725Z,17.60
2018-09-21T06:33:42.898Z,17.80
2018-09-21T06:36:11.382Z,17.90
2018-09-21T06:38:39.574Z,18.00
2018-09-21T06:41:07.872Z,18.00
2018-09-21T06:43:35.998Z,18.00
2018-09-21T06:46:04.193Z,18.00
2018-09-21T06:48:32.423Z,18.10
2018-09-21T06:51:01.495Z,18.30
2018-09-21T06:53:29.690Z,18.30
2018-09-21T06:55:57.902Z,18.30
2018-09-21T06:58:26.107Z,18.50
2018-09-21T07:00:54.256Z,18.70
2018-09-21T07:03:22.435Z,18.80
2018-09-21T07:05:53.404Z,19.00
2018-09-21T07:08:22.478Z,19.00
2018-09-21T07:10:50.616Z,19.10
2018-09-21T07:13:18.786Z,19.10
2018-09-21T07:15:46.972Z,19.20
2018-09-21T07:18:15.166Z,19.30
2018-09-21T07:20:43.363Z,19.30
2018-09-21T07:23:11.542Z,19.30
2018-09-21T07:25:39.718Z,19.40
2018-09-21T07:28:07.898Z,19.50
2018-09-21T07:30:36.079Z,19.40
2018-09-21T07:33:04.254Z,19.40
2018-09-21T07:35:32.417Z,19.50
2018-09-21T07:38:00.578Z,19.50
2018-09-21T07:40:28.755Z,19.50
2018-09-21T07:42:56.986Z,19.50
2018-09-21T07:45:25.571Z,19.50
2018-09-21T07:47:53.722Z,19.60
2018-09-21T07:50:21.892Z,19.60
2018-09-21T07:52:50.049Z,19.60
2018-09-21T07:55:18.223Z,19.60
2018-09-21T07:57:46.389Z,19.60
2018-09-21T08:00:14.565Z,19.70
2018-09-21T08:02:42.797Z,19.70
2018-09-21T08:05:11.009Z,19.80
2018-09-21T08:07:39.163Z,19.90
2018-09-21T08:10:07.347Z,19.90
2018-09-21T08:12:35.576Z,19.90
2018-09-21T08:15:03.735Z,20.00
2018-09-21T08:17:31.905Z,20.10
2018-09-21T08:20:00.083Z,20.30
2018-09-21T08:22:28.250Z,20.50
2018-09-21T08:24:56.473Z,20.50
2018-09-21T08:27:24.597Z,20.50
2018-09-21T08:29:52.764Z,20.50
2018-09-21T08:32:20.961Z,20.40
2018-09-21T08:34:49.190Z,20.40
2018-09-21T08:37:17.453Z,20.30
2018-09-21T08:39:45.524Z,20.30
2018-09-21T08:42:13.702Z,20.30
2018-09-21T08:44:41.987Z,20.40
2018-09-21T08:47:10.199Z,20.40
2018-09-21T08:49:38.416Z,20.40
2018-09-21T08:52:06.807Z,20.50
2018-09-21T08:54:35.042Z,20.50
2018-09-21T08:57:03.174Z,20.40
2018-09-21T08:59:31.355Z,20.40
2018-09-21T09:01:59.550Z,20.50
2018-09-21T09:04:27.711Z,20.50
2018-09-21T09:06:55.923Z,20.50
2018-09-21T09:09:24.162Z,20.50
2018-09-21T09:11:52.420Z,20.50
2018-09-21T09:14:20.639Z,20.50
2018-09-21T09:16:48.850Z,20.40
2018-09-21T09:19:17.085Z,20.50
2018-09-21T09:21:45.286Z,20.50
2018-09-21T09:24:13.459Z,20.50
2018-09-21T09:26:41.594Z,20.50
2018-09-21T09:29:10.171Z,20.60
2018-09-21T09:31:38.632Z,20.70
2018-09-21T09:34:06.858Z,20.70
2018-09-21T09:36:35.030Z,20.70
2018-09-21T09:39:05.384Z,20.70
2018-09-21T09:41:33.607Z,20.90
2018-09-21T09:44:01.782Z,21.00
2018-09-21T09:46:29.958Z,21.10
2018-09-21T09:48:58.325Z,21.10
2018-09-21T09:51:26.415Z,21.10
2018-09-21T09:53:54.607Z,21.20
2018-09-21T09:56:22.764Z,21.20
2018-09-21T09:58:50.933Z,21.40
2018-09-21T10:01:19.128Z,21.50
2018-09-21T10:03:47.374Z,21.70
2018-09-21T10:06:15.530Z,21.70
2018-09-21T10:08:44.928Z,21.80
2018-09-21T10:11:13.083Z,21.80
2018-09-21T10:13:41.275Z,21.80
2018-09-21T10:16:09.434Z,21.90
2018-09-21T10:18:37.615Z,21.90
2018-09-21T10:21:05.782Z,22.00
2018-09-21T10:23:33.930Z,22.20
2018-09-21T10:26:02.106Z,22.20
2018-09-21T10:28:30.520Z,22.30
2018-09-21T10:30:58.452Z,22.30
2018-09-21T10:33:26.642Z,22.20
2018-09-21T10:35:54.804Z,22.20
2018-09-21T10:38:22.978Z,22.20
2018-09-21T10:41:05.979Z,22.30
2018-09-21T10:43:34.162Z,22.20
2018-09-21T10:46:02.359Z,22.20
2018-09-21T10:48:30.538Z,22.20
2018-09-21T10:50:58.714Z,22.10
2018-09-21T10:53:26.974Z,22.10
2018-09-21T10:55:55.127Z,22.10
2018-09-21T10:58:23.278Z,22.20
2018-09-21T11:00:51.451Z,22.30
2018-09-21T11:03:19.626Z,22.40
2018-09-21T11:05:47.819Z,22.50
2018-09-21T11:08:15.990Z,22.50
2018-09-21T11:10:44.160Z,22.50
2018-09-21T11:13:12.337Z,22.50
2018-09-21T11:15:40.486Z,22.50
2018-09-21T11:18:08.874Z,22.50
2018-09-21T11:20:37.090Z,22.50
2018-09-21T11:23:06.125Z,22.50
2018-09-21T11:25:34.274Z,22.50
2018-09-21T11:28:02.444Z,22.50
2018-09-21T11:30:30.594Z,22.50
2018-09-21T11:33:02.035Z,22.50
2018-09-21T11:35:30.945Z,22.50
2018-09-21T11:37:59.935Z,22.60
2018-09-21T11:40:28.140Z,22.50
2018-09-21T11:42:56.314Z,22.60
2018-09-21T11:45:24.510Z,22.50
2018-09-21T11:47:52.711Z,22.50
2018-09-21T11:50:20.884Z,22.40
2018-09-21T11:52:49.103Z,22.40
2018-09-21T11:55:17.350Z,22.40
2018-09-21T11:57:45.561Z,22.40
2018-09-21T12:00:13.878Z,22.40
2018-09-21T12:02:42.073Z,22.40
2018-09-21T12:05:10.254Z,22.30
2018-09-21T12:07:38.503Z,22.30
2018-09-21T12:10:06.743Z,22.30
2018-09-21T12:12:35.005Z,22.20
2018-09-21T12:15:03.336Z,22.20
2018-09-21T12:17:31.562Z,22.00
2018-09-21T12:19:59.797Z,21.80
2018-09-21T12:22:28.062Z,21.40
2018-09-21T12:24:56.313Z,21.00
2018-09-21T12:27:24.487Z,20.60
2018-09-21T12:29:52.754Z,20.20
2018-09-21T12:32:21.019Z,20.00
2018-09-21T12:34:49.154Z,19.80
2018-09-21T12:37:17.379Z,19.60
2018-09-21T12:39:45.583Z,19.40
2018-09-21T12:42:13.794Z,19.30
2018-09-21T12:44:42.079Z,19.10
2018-09-21T12:47:12.597Z,18.60
2018-09-21T12:49:40.848Z,18.00
2018-09-21T12:52:08.660Z,17.30
2018-09-21T12:54:36.541Z,16.20
2018-09-21T12:57:04.060Z,15.50
2018-09-21T12:59:32.648Z,14.80
2018-09-21T13:02:00.806Z,14.40
2018-09-21T13:04:29.167Z,13.90
2018-09-21T13:06:57.346Z,13.70
2018-09-21T13:09:25.579Z,13.60
2018-09-21T13:11:53.789Z,13.50
2018-09-21T13:14:28.159Z,13.40
2018-09-21T13:17:00.587Z,13.30
2018-09-21T13:19:29.009Z,13.30
2018-09-21T13:21:57.470Z,13.30
2018-09-21T13:24:26.051Z,13.20
2018-09-21T13:26:54.356Z,13.30
2018-09-21T13:29:22.482Z,13.30
2018-09-21T13:31:50.654Z,13.20
2018-09-21T13:34:18.827Z,13.20
2018-09-21T13:36:47.033Z,13.20
2018-09-21T13:39:15.245Z,13.20
2018-09-21T13:41:58.206Z,13.30
2018-09-21T13:44:36.091Z,13.20
2018-09-21T13:47:07.704Z,13.30
2018-09-21T13:49:36.062Z,13.30
2018-09-21T13:52:03.628Z,13.40
2018-09-21T13:54:31.755Z,13.30
2018-09-21T13:56:59.928Z,13.40
2018-09-21T13:59:27.864Z,13.40
2018-09-21T14:01:55.325Z,13.40
2018-09-21T14:04:22.869Z,13.40
2018-09-21T14:06:51.107Z,13.40
2018-09-21T14:09:18.610Z,13.40
2018-09-21T14:11:46.150Z,13.40
2018-09-21T14:14:14.391Z,13.50
2018-09-21T14:16:41.903Z,13.40
2018-09-21T14:19:09.461Z,13.50
2018-09-21T14:21:36.936Z,13.50
2018-09-21T14:24:04.413Z,13.50
2018-09-21T14:26:31.893Z,13.40
2018-09-21T14:28:59.414Z,13.30
2018-09-21T14:31:26.923Z,13.40
2018-09-21T14:33:54.473Z,13.40
2018-09-21T14:36:22.018Z,13.40
2018-09-21T14:38:49.541Z,13.50
2018-09-21T14:41:17.533Z,13.30
2018-09-21T14:43:45.051Z,13.40
2018-09-21T14:46:12.728Z,13.40
2018-09-21T14:48:41.120Z,13.50
2018-09-21T14:51:08.656Z,13.40
2018-09-21T14:53:36.153Z,13.40
2018-09-21T14:56:03.739Z,13.50
2018-09-21T14:58:31.218Z,13.60
2018-09-21T15:00:59.439Z,13.70
2018-09-21T15:03:26.924Z,13.70
2018-09-21T15:05:55.135Z,13.80
2018-09-21T15:08:23.416Z,13.80
2018-09-21T15:10:51.656Z,13.90
2018-09-21T15:13:19.852Z,14.00
2018-09-21T15:15:48.079Z,14.10
2018-09-21T15:18:16.382Z,14.20
2018-09-21T15:20:44.607Z,14.70
2018-09-21T15:23:12.840Z,15.10
2018-09-21T15:25:41.979Z,15.10
2018-09-21T15:28:10.425Z,15.20
2018-09-21T15:30:49.153Z,15.30
2018-09-21T15:33:17.514Z,15.40
2018-09-21T15:35:46.737Z,15.30
2018-09-21T15:38:15.222Z,15.50
2018-09-21T15:40:43.507Z,15.60
2018-09-21T15:43:11.784Z,15.40
2018-09-21T15:45:40.102Z,15.10
2018-09-21T15:48:11.058Z,15.00
2018-09-21T15:50:41.452Z,14.80
2018-09-21T15:53:11.440Z,14.70
2018-09-21T15:55:39.808Z,14.60
2018-09-21T15:58:08.933Z,14.60
2018-09-21T16:00:39.032Z,14.60
2018-09-21T16:03:08.109Z,14.60
2018-09-21T16:05:41.683Z,14.60
2018-09-21T16:08:20.754Z,14.50
2018-09-21T16:10:55.327Z,14.60
2018-09-21T16:13:25.682Z,14.60
2018-09-21T16:15:53.898Z,14.70
2018-09-21T16:18:22.461Z,14.70
2018-09-21T16:20:50.649Z,14.60
2018-09-21T16:23:18.830Z,14.50
2018-09-21T16:25:47.000Z,14.40
2018-09-21T16:28:15.244Z,14.40
2018-09-21T16:30:43.458Z,14.30
2018-09-21T16:33:11.735Z,14.30
2018-09-21T16:35:40.032Z,14.30
2018-09-21T16:38:08.280Z,14.20
2018-09-21T16:40:36.793Z,14.20
2018-09-21T16:43:04.990Z,14.10
2018-09-21T16:45:33.158Z,14.10
2018-09-21T16:48:01.485Z,14.20
2018-09-21T16:50:29.816Z,14.10
2018-09-21T16:52:58.043Z,14.10
2018-09-21T16:55:26.281Z,14.00
2018-09-21T16:57:54.510Z,14.00
2018-09-21T17:00:22.843Z,13.90
2018-09-21T17:02:51.218Z,13.90
2018-09-21T17:05:19.460Z,13.90
2018-09-21T17:07:47.620Z,13.90
2018-09-21T17:10:15.823Z,13.90
2018-09-21T17:12:43.990Z,13.80
2018-09-21T17:15:12.166Z,13.80
2018-09-21T17:17:40.364Z,13.70
2018-09-21T17:20:08.558Z,13.70
2018-09-21T17:22:44.043Z,13.70
2018-09-21T17:25:12.283Z,13.70
2018-09-21T17:27:40.740Z,13.60
2018-09-21T17:30:08.956Z,13.50
2018-09-21T17:32:37.197Z,13.50
2018-09-21T17:35:06.636Z,13.40
2018-09-21T17:37:34.867Z,13.40
2018-09-21T17:40:03.047Z,13.30
2018-09-21T17:42:31.386Z,13.30
2018-09-21T17:44:58.940Z,13.10
2018-09-21T17:47:27.590Z,13.20
2018-09-21T17:49:55.837Z,13.20
2018-09-21T17:52:24.040Z,13.10
2018-09-21T17:54:52.275Z,13.10
2018-09-21T17:57:20.471Z,13.00
2018-09-21T17:59:48.680Z,13.00
2018-09-21T18:02:16.890Z,12.90
2018-09-21T18:04:45.089Z,12.90
2018-09-21T18:07:18.749Z,13.00
2018-09-21T18:09:47.861Z,12.90
2018-09-21T18:12:16.099Z,12.90
2018-09-21T18:14:44.490Z,12.90
2018-09-21T18:17:13.193Z,12.80
2018-09-21T18:19:42.283Z,12.90
2018-09-21T18:22:11.078Z,12.90
2018-09-21T18:24:39.408Z,12.90
2018-09-21T18:27:07.723Z,12.90
2018-09-21T18:29:36.643Z,12.80
2018-09-21T18:32:04.875Z,12.80
2018-09-21T18:34:33.076Z,12.70
2018-09-21T18:37:04.354Z,12.80
2018-09-21T18:39:34.418Z,12.80
2018-09-21T18:42:02.700Z,12.70
2018-09-21T18:44:30.888Z,12.70
2018-09-21T18:46:59.105Z,12.70
2018-09-21T18:49:27.327Z,12.80
2018-09-21T18:51:55.649Z,12.70
2018-09-21T18:54:24.883Z,12.60
2018-09-21T18:56:53.114Z,12.60
2018-09-21T18:59:21.323Z,12.60
2018-09-21T19:01:49.586Z,12.40
2018-09-21T19:04:18.148Z,12.40
2018-09-21T19:06:45.675Z,12.40
2018-09-21T19:09:13.174Z,12.30
2018-09-21T19:11:40.664Z,12.30
2018-09-21T19:14:08.161Z,12.20
2018-09-21T19:16:35.694Z,12.10
2018-09-21T19:19:03.261Z,12.10
2018-09-21T19:21:30.718Z,11.90
2018-09-21T19:23:58.236Z,11.70
2018-09-21T19:26:25.853Z,11.70
2018-09-21T19:28:53.335Z,11.70
2018-09-21T19:31:23.853Z,11.50
2018-09-21T19:33:51.420Z,11.40
2018-09-21T19:36:19.109Z,11.30
2018-09-21T19:38:46.672Z,11.20
2018-09-21T19:41:15.076Z,11.20
2018-09-21T19:43:42.936Z,11.10
2018-09-21T19:46:10.470Z,11.00
2018-09-21T19:48:37.983Z,10.90
2018-09-21T19:51:05.672Z,10.70
2018-09-21T19:53:33.231Z,10.90
2018-09-21T19:56:00.715Z,10.90
2018-09-21T19:58:28.216Z,10.90
2018-09-21T20:00:56.605Z,10.80
2018-09-21T20:03:24.115Z,10.60
2018-09-21T20:05:51.623Z,10.70
2018-09-21T20:08:19.126Z,10.50
2018-09-21T20:10:46.609Z,10.50
2018-09-21T20:13:14.151Z,10.50
2018-09-21T20:15:41.664Z,10.60
2018-09-21T20:18:10.155Z,10.60
2018-09-21T20:20:37.715Z,10.50
2018-09-21T20:23:05.177Z,10.70
2018-09-21T20:25:32.678Z,10.90
2018-09-21T20:30:38.896Z,10.80
2018-09-21T20:33:11.902Z,10.70
2018-09-21T20:35:39.492Z,10.80
2018-09-21T20:38:06.923Z,10.60
2018-09-21T20:40:34.443Z,10.40
2018-09-21T20:43:01.992Z,10.30
2018-09-21T20:45:29.499Z,10.50
2018-09-21T20:47:57.023Z,10.50
2018-09-21T20:50:24.543Z,10.40
2018-09-21T20:52:52.087Z,10.40
2018-09-21T20:55:20.631Z,10.50
2018-09-21T20:57:48.154Z,10.50
2018-09-21T21:00:15.670Z,10.50
2018-09-21T21:02:43.193Z,10.60
2018-09-21T21:05:10.735Z,10.50
2018-09-21T21:07:38.268Z,10.20
2018-09-21T21:10:05.857Z,10.10
2018-09-21T21:12:33.378Z,10.10
2018-09-21T21:15:00.908Z,10.20
2018-09-21T21:17:28.453Z,10.20
2018-09-21T21:19:55.979Z,10.30
2018-09-21T21:22:23.622Z,10.40
2018-09-21T21:24:51.098Z,10.40
2018-09-21T21:27:19.637Z,10.60
2018-09-21T21:29:48.039Z,10.60
2018-09-21T21:32:15.555Z,10.60
2018-09-21T21:34:43.081Z,10.60
2018-09-21T21:37:10.561Z,10.40
2018-09-21T21:39:38.094Z,10.40
2018-09-21T21:42:05.630Z,10.50
2018-09-21T21:44:33.227Z,10.50
2018-09-21T21:47:00.726Z,10.60
2018-09-21T21:49:28.280Z,10.70
2018-09-21T21:51:55.817Z,10.80
2018-09-21T21:54:26.343Z,11.10
2018-09-21T21:56:53.814Z,11.20
2018-09-21T21:59:21.331Z,11.50
2018-09-21T22:01:49.254Z,11.60
2018-09-21T22:04:18.035Z,11.70
2018-09-21T22:09:20.459Z,11.80
2018-09-21T22:11:53.512Z,11.90
2018-09-21T22:14:27.744Z,11.90
2018-09-21T22:16:55.242Z,12.00
2018-09-21T22:19:22.743Z,12.00
2018-09-21T22:21:50.258Z,12.10
2018-09-21T22:24:17.779Z,12.20
2018-09-21T22:26:45.282Z,12.30
2018-09-21T22:29:14.675Z,12.30
2018-09-21T22:31:42.171Z,12.30
2018-09-21T22:34:09.692Z,12.20
2018-09-21T22:36:37.197Z,12.20
2018-09-21T22:39:06.617Z,12.00
2018-09-21T22:41:34.114Z,12.10
2018-09-21T22:44:01.632Z,12.20
2018-09-21T22:46:29.138Z,12.20
2018-09-21T22:48:57.023Z,12.00
2018-09-21T22:51:24.548Z,12.00
2018-09-21T22:53:52.061Z,12.00
2018-09-21T22:56:19.594Z,12.10
2018-09-21T22:58:47.119Z,12.10
2018-09-21T23:01:14.645Z,12.10
2018-09-21T23:03:42.203Z,12.00
2018-09-21T23:06:09.763Z,12.10
2018-09-21T23:08:37.309Z,12.10
2018-09-21T23:11:04.851Z,12.10
2018-09-21T23:13:32.364Z,12.10
2018-09-21T23:15:59.902Z,12.10
2018-09-21T23:18:27.496Z,12.10
2018-09-21T23:20:55.606Z,12.10
2018-09-21T23:23:23.306Z,12.00
2018-09-21T23:25:50.875Z,12.10
2018-09-21T23:28:18.656Z,12.10
2018-09-21T23:30:46.150Z,12.10
2018-09-21T23:33:13.658Z,12.10
2018-09-21T23:35:41.153Z,12.10
2018-09-21T23:38:08.663Z,12.10
2018-09-21T23:40:36.162Z,12.10
2018-09-21T23:43:03.618Z,12.20
2018-09-21T23:45:32.002Z,12.30
2018-09-21T23:47:59.480Z,12.20
2018-09-21T23:50:26.961Z,12.20
2018-09-21T23:52:54.454Z,12.30
2018-09-21T23:55:21.948Z,12.30
2018-09-21T23:57:49.447Z,12.30
